sensor_id;sensor_type;location;lat;lon;timestamp;noise_LAeq;noise_LA_min;noise_LA_max;noise_LA01;noise_LA95
66274;Laerm;58450;52.150;4.466;2023-05-09T00:00:36;39.88;33.36;48.20;;
66274;Laerm;58450;52.150;4.466;2023-05-09T00:03:04;39.71;33.66;47.28;;
66274;Laerm;58450;52.150;4.466;2023-05-09T00:05:33;39.05;33.22;47.13;;
66274;Laerm;58450;52.150;4.466;2023-05-09T00:08:00;39.79;33.54;47.54;;
66274;Laerm;58450;52.150;4.466;2023-05-09T00:10:28;39.28;32.95;47.38;;
66274;Laerm;58450;52.150;4.466;2023-05-09T00:12:56;39.25;33.11;56.06;;
66274;Laerm;58450;52.150;4.466;2023-05-09T00:15:24;39.02;33.07;47.09;;
66274;Laerm;58450;52.150;4.466;2023-05-09T00:17:52;38.99;32.66;47.05;;
66274;Laerm;58450;52.150;4.466;2023-05-09T00:20:19;39.17;32.53;58.76;;
66274;Laerm;58450;52.150;4.466;2023-05-09T00:22:48;39.89;33.22;61.30;;
66274;Laerm;58450;52.150;4.466;2023-05-09T00:25:16;39.91;34.21;51.42;;
66274;Laerm;58450;52.150;4.466;2023-05-09T00:27:43;39.31;33.64;47.81;;
66274;Laerm;58450;52.150;4.466;2023-05-09T00:30:11;40.66;33.73;57.85;;
66274;Laerm;58450;52.150;4.466;2023-05-09T00:32:38;39.56;33.41;50.28;;
66274;Laerm;58450;52.150;4.466;2023-05-09T00:35:07;41.41;33.06;51.93;;
66274;Laerm;58450;52.150;4.466;2023-05-09T00:37:35;39.33;33.24;52.21;;
66274;Laerm;58450;52.150;4.466;2023-05-09T00:40:06;39.99;33.09;51.36;;
66274;Laerm;58450;52.150;4.466;2023-05-09T00:42:34;41.56;33.08;58.66;;
66274;Laerm;58450;52.150;4.466;2023-05-09T00:45:02;41.54;33.68;54.93;;
66274;Laerm;58450;52.150;4.466;2023-05-09T00:47:30;38.70;33.32;46.93;;
66274;Laerm;58450;52.150;4.466;2023-05-09T00:49:58;41.24;32.98;63.51;;
66274;Laerm;58450;52.150;4.466;2023-05-09T00:52:25;38.60;32.73;46.74;;
66274;Laerm;58450;52.150;4.466;2023-05-09T00:54:54;39.09;32.63;54.74;;
66274;Laerm;58450;52.150;4.466;2023-05-09T00:57:23;41.16;33.34;55.96;;
66274;Laerm;58450;52.150;4.466;2023-05-09T00:59:50;38.85;33.16;47.35;;
66274;Laerm;58450;52.150;4.466;2023-05-09T01:02:18;38.58;33.17;47.10;;
66274;Laerm;58450;52.150;4.466;2023-05-09T01:04:46;38.83;33.21;48.16;;
66274;Laerm;58450;52.150;4.466;2023-05-09T01:07:23;38.84;33.75;47.57;;
66274;Laerm;58450;52.150;4.466;2023-05-09T01:10:01;39.26;33.35;46.54;;
66274;Laerm;58450;52.150;4.466;2023-05-09T01:12:45;38.36;32.75;46.65;;
66274;Laerm;58450;52.150;4.466;2023-05-09T01:15:25;38.45;33.00;47.62;;
66274;Laerm;58450;52.150;4.466;2023-05-09T01:18:00;39.10;33.24;46.81;;
66274;Laerm;58450;52.150;4.466;2023-05-09T01:20:34;38.80;32.63;47.02;;
66274;Laerm;58450;52.150;4.466;2023-05-09T01:23:28;39.55;33.19;49.26;;
66274;Laerm;58450;52.150;4.466;2023-05-09T01:26:13;43.63;34.70;61.68;;
66274;Laerm;58450;52.150;4.466;2023-05-09T01:29:40;39.47;33.60;56.43;;
66274;Laerm;58450;52.150;4.466;2023-05-09T01:32:13;39.40;33.56;53.90;;
66274;Laerm;58450;52.150;4.466;2023-05-09T01:34:44;41.63;33.30;56.56;;
66274;Laerm;58450;52.150;4.466;2023-05-09T01:37:14;39.01;32.62;47.27;;
66274;Laerm;58450;52.150;4.466;2023-05-09T01:39:47;38.72;32.81;46.76;;
66274;Laerm;58450;52.150;4.466;2023-05-09T01:42:19;44.61;33.62;58.81;;
66274;Laerm;58450;52.150;4.466;2023-05-09T01:44:49;49.72;32.49;62.97;;
66274;Laerm;58450;52.150;4.466;2023-05-09T01:47:18;38.91;33.45;46.96;;
66274;Laerm;58450;52.150;4.466;2023-05-09T01:49:48;38.95;32.72;48.77;;
66274;Laerm;58450;52.150;4.466;2023-05-09T01:52:18;38.90;33.34;46.90;;
66274;Laerm;58450;52.150;4.466;2023-05-09T01:54:47;39.33;33.35;51.99;;
66274;Laerm;58450;52.150;4.466;2023-05-09T01:57:18;38.81;33.80;46.71;;
66274;Laerm;58450;52.150;4.466;2023-05-09T01:59:48;38.75;33.04;46.85;;
66274;Laerm;58450;52.150;4.466;2023-05-09T02:02:17;44.50;34.04;57.56;;
66274;Laerm;58450;52.150;4.466;2023-05-09T02:04:47;45.64;33.90;65.43;;
66274;Laerm;58450;52.150;4.466;2023-05-09T02:07:15;39.60;33.83;54.49;;
66274;Laerm;58450;52.150;4.466;2023-05-09T02:09:45;40.08;33.92;57.09;;
66274;Laerm;58450;52.150;4.466;2023-05-09T02:12:12;39.51;33.48;46.66;;
66274;Laerm;58450;52.150;4.466;2023-05-09T02:14:40;39.22;33.41;46.74;;
66274;Laerm;58450;52.150;4.466;2023-05-09T02:17:09;38.88;33.45;46.46;;
66274;Laerm;58450;52.150;4.466;2023-05-09T02:19:42;38.53;32.98;46.80;;
66274;Laerm;58450;52.150;4.466;2023-05-09T02:22:11;38.76;33.32;46.54;;
66274;Laerm;58450;52.150;4.466;2023-05-09T02:24:41;42.02;33.47;59.17;;
66274;Laerm;58450;52.150;4.466;2023-05-09T02:27:10;40.68;32.76;52.86;;
66274;Laerm;58450;52.150;4.466;2023-05-09T02:29:43;39.49;33.47;47.13;;
66274;Laerm;58450;52.150;4.466;2023-05-09T02:32:19;39.11;33.58;46.80;;
66274;Laerm;58450;52.150;4.466;2023-05-09T02:34:51;41.81;33.67;57.11;;
66274;Laerm;58450;52.150;4.466;2023-05-09T02:37:20;39.03;33.06;48.93;;
66274;Laerm;58450;52.150;4.466;2023-05-09T02:39:48;39.08;33.25;48.85;;
66274;Laerm;58450;52.150;4.466;2023-05-09T02:42:20;39.36;33.99;50.51;;
66274;Laerm;58450;52.150;4.466;2023-05-09T02:44:50;39.41;33.82;48.09;;
66274;Laerm;58450;52.150;4.466;2023-05-09T02:47:19;39.97;34.23;53.51;;
66274;Laerm;58450;52.150;4.466;2023-05-09T02:49:47;40.57;34.82;53.27;;
66274;Laerm;58450;52.150;4.466;2023-05-09T02:52:14;40.32;34.78;54.24;;
66274;Laerm;58450;52.150;4.466;2023-05-09T02:54:42;42.35;34.46;67.18;;
66274;Laerm;58450;52.150;4.466;2023-05-09T02:57:09;40.58;34.30;53.82;;
66274;Laerm;58450;52.150;4.466;2023-05-09T02:59:37;41.25;34.47;55.53;;
66274;Laerm;58450;52.150;4.466;2023-05-09T03:02:04;41.72;35.67;58.31;;
66274;Laerm;58450;52.150;4.466;2023-05-09T03:04:33;41.88;34.74;61.00;;
66274;Laerm;58450;52.150;4.466;2023-05-09T03:07:01;47.17;34.91;68.11;;
66274;Laerm;58450;52.150;4.466;2023-05-09T03:09:28;41.93;35.11;56.96;;
66274;Laerm;58450;52.150;4.466;2023-05-09T03:11:56;42.55;35.88;55.38;;
66274;Laerm;58450;52.150;4.466;2023-05-09T03:14:23;46.31;35.68;66.23;;
66274;Laerm;58450;52.150;4.466;2023-05-09T03:16:51;42.11;35.74;56.37;;
66274;Laerm;58450;52.150;4.466;2023-05-09T03:19:18;41.60;36.00;57.65;;
66274;Laerm;58450;52.150;4.466;2023-05-09T03:21:47;45.73;36.34;65.13;;
66274;Laerm;58450;52.150;4.466;2023-05-09T03:24:14;45.54;37.02;63.98;;
66274;Laerm;58450;52.150;4.466;2023-05-09T03:26:42;48.53;37.30;71.19;;
66274;Laerm;58450;52.150;4.466;2023-05-09T03:29:09;46.21;37.52;64.24;;
66274;Laerm;58450;52.150;4.466;2023-05-09T03:31:36;45.93;37.65;59.04;;
66274;Laerm;58450;52.150;4.466;2023-05-09T03:34:04;46.16;36.91;68.06;;
66274;Laerm;58450;52.150;4.466;2023-05-09T03:36:31;46.64;37.26;68.47;;
66274;Laerm;58450;52.150;4.466;2023-05-09T03:39:00;47.08;37.37;71.69;;
66274;Laerm;58450;52.150;4.466;2023-05-09T03:41:28;45.35;37.17;58.40;;
66274;Laerm;58450;52.150;4.466;2023-05-09T03:43:55;47.41;38.15;60.40;;
66274;Laerm;58450;52.150;4.466;2023-05-09T03:46:23;44.03;37.59;56.43;;
66274;Laerm;58450;52.150;4.466;2023-05-09T03:48:50;44.69;37.77;65.65;;
66274;Laerm;58450;52.150;4.466;2023-05-09T03:51:17;46.33;37.85;62.53;;
66274;Laerm;58450;52.150;4.466;2023-05-09T03:53:46;45.58;37.76;61.85;;
66274;Laerm;58450;52.150;4.466;2023-05-09T03:56:15;45.14;38.38;64.94;;
66274;Laerm;58450;52.150;4.466;2023-05-09T03:58:43;48.64;38.27;69.43;;
66274;Laerm;58450;52.150;4.466;2023-05-09T04:01:10;46.72;37.50;64.37;;
66274;Laerm;58450;52.150;4.466;2023-05-09T04:03:38;49.06;37.95;69.11;;
66274;Laerm;58450;52.150;4.466;2023-05-09T04:06:06;50.42;38.28;70.85;;
66274;Laerm;58450;52.150;4.466;2023-05-09T04:08:34;47.65;38.17;67.04;;
66274;Laerm;58450;52.150;4.466;2023-05-09T04:11:02;48.61;37.36;67.50;;
66274;Laerm;58450;52.150;4.466;2023-05-09T04:13:32;48.36;38.36;64.86;;
66274;Laerm;58450;52.150;4.466;2023-05-09T04:15:59;46.38;38.64;62.78;;
66274;Laerm;58450;52.150;4.466;2023-05-09T04:18:27;46.77;39.64;60.93;;
66274;Laerm;58450;52.150;4.466;2023-05-09T04:20:56;45.84;39.68;57.78;;
66274;Laerm;58450;52.150;4.466;2023-05-09T04:23:23;46.37;39.29;60.60;;
66274;Laerm;58450;52.150;4.466;2023-05-09T04:25:50;45.32;39.44;60.21;;
66274;Laerm;58450;52.150;4.466;2023-05-09T04:28:19;45.78;38.14;60.42;;
66274;Laerm;58450;52.150;4.466;2023-05-09T04:30:48;44.90;38.49;68.66;;
66274;Laerm;58450;52.150;4.466;2023-05-09T04:33:16;46.24;40.21;57.31;;
66274;Laerm;58450;52.150;4.466;2023-05-09T04:35:43;45.54;39.75;58.78;;
66274;Laerm;58450;52.150;4.466;2023-05-09T04:38:11;49.62;40.28;68.92;;
66274;Laerm;58450;52.150;4.466;2023-05-09T04:40:38;52.49;43.12;73.31;;
66274;Laerm;58450;52.150;4.466;2023-05-09T04:43:06;48.70;42.26;61.87;;
66274;Laerm;58450;52.150;4.466;2023-05-09T04:45:33;50.78;42.26;71.39;;
66274;Laerm;58450;52.150;4.466;2023-05-09T04:48:02;48.25;43.61;63.10;;
66274;Laerm;58450;52.150;4.466;2023-05-09T04:50:30;47.21;42.93;57.56;;
66274;Laerm;58450;52.150;4.466;2023-05-09T04:52:57;47.77;43.70;69.64;;
66274;Laerm;58450;52.150;4.466;2023-05-09T04:55:25;47.67;42.77;59.27;;
66274;Laerm;58450;52.150;4.466;2023-05-09T04:57:52;47.45;43.16;56.94;;
66274;Laerm;58450;52.150;4.466;2023-05-09T05:00:20;47.38;43.25;56.29;;
66274;Laerm;58450;52.150;4.466;2023-05-09T05:02:48;71.42;43.72;84.39;;
66274;Laerm;58450;52.150;4.466;2023-05-09T05:05:17;70.71;46.72;83.28;;
66274;Laerm;58450;52.150;4.466;2023-05-09T05:07:44;66.46;46.85;80.41;;
66274;Laerm;58450;52.150;4.466;2023-05-09T05:10:12;52.62;45.30;70.37;;
66274;Laerm;58450;52.150;4.466;2023-05-09T05:12:39;57.24;44.72;78.29;;
66274;Laerm;58450;52.150;4.466;2023-05-09T05:15:08;69.36;45.80;85.66;;
66274;Laerm;58450;52.150;4.466;2023-05-09T05:17:35;70.80;53.00;83.00;;
66274;Laerm;58450;52.150;4.466;2023-05-09T05:20:04;66.78;46.41;78.98;;
66274;Laerm;58450;52.150;4.466;2023-05-09T05:22:34;65.02;45.07;79.95;;
66274;Laerm;58450;52.150;4.466;2023-05-09T05:25:02;52.41;46.06;62.49;;
66274;Laerm;58450;52.150;4.466;2023-05-09T05:27:30;60.90;45.54;80.98;;
66274;Laerm;58450;52.150;4.466;2023-05-09T05:29:58;72.00;49.41;84.49;;
66274;Laerm;58450;52.150;4.466;2023-05-09T05:32:25;71.27;53.30;83.06;;
66274;Laerm;58450;52.150;4.466;2023-05-09T05:34:53;67.44;45.40;82.94;;
66274;Laerm;58450;52.150;4.466;2023-05-09T05:37:20;59.77;44.75;76.49;;
66274;Laerm;58450;52.150;4.466;2023-05-09T05:39:49;53.98;46.18;77.54;;
66274;Laerm;58450;52.150;4.466;2023-05-09T05:42:17;69.41;45.81;84.50;;
66274;Laerm;58450;52.150;4.466;2023-05-09T05:44:44;72.04;53.68;83.72;;
66274;Laerm;58450;52.150;4.466;2023-05-09T05:47:12;66.91;45.16;83.25;;
66274;Laerm;58450;52.150;4.466;2023-05-09T05:49:39;65.98;46.28;79.87;;
66274;Laerm;58450;52.150;4.466;2023-05-09T05:52:06;53.48;47.28;71.95;;
66274;Laerm;58450;52.150;4.466;2023-05-09T05:54:34;52.06;45.73;69.09;;
66274;Laerm;58450;52.150;4.466;2023-05-09T05:57:03;70.74;48.52;82.68;;
66274;Laerm;58450;52.150;4.466;2023-05-09T05:59:30;69.35;49.90;81.87;;
66274;Laerm;58450;52.150;4.466;2023-05-09T06:01:57;64.22;47.61;77.13;;
66274;Laerm;58450;52.150;4.466;2023-05-09T06:04:25;52.26;47.55;69.31;;
66274;Laerm;58450;52.150;4.466;2023-05-09T06:06:54;52.31;47.08;67.25;;
66274;Laerm;58450;52.150;4.466;2023-05-09T06:09:21;54.08;48.41;61.92;;
66274;Laerm;58450;52.150;4.466;2023-05-09T06:11:49;55.75;48.94;72.08;;
66274;Laerm;58450;52.150;4.466;2023-05-09T06:14:18;54.82;49.14;77.81;;
66274;Laerm;58450;52.150;4.466;2023-05-09T06:16:46;67.59;47.88;83.71;;
66274;Laerm;58450;52.150;4.466;2023-05-09T06:19:13;70.39;49.05;86.99;;
66274;Laerm;58450;52.150;4.466;2023-05-09T06:21:40;68.39;49.01;82.61;;
66274;Laerm;58450;52.150;4.466;2023-05-09T06:24:08;65.11;47.58;80.35;;
66274;Laerm;58450;52.150;4.466;2023-05-09T06:26:36;54.23;46.52;74.54;;
66274;Laerm;58450;52.150;4.466;2023-05-09T06:29:04;54.07;47.54;76.60;;
66274;Laerm;58450;52.150;4.466;2023-05-09T06:31:34;69.71;48.66;86.29;;
66274;Laerm;58450;52.150;4.466;2023-05-09T06:34:03;70.56;50.25;83.85;;
66274;Laerm;58450;52.150;4.466;2023-05-09T06:36:31;68.24;48.03;84.49;;
66274;Laerm;58450;52.150;4.466;2023-05-09T06:38:59;65.03;48.56;83.87;;
66274;Laerm;58450;52.150;4.466;2023-05-09T06:41:26;53.46;47.63;73.39;;
66274;Laerm;58450;52.150;4.466;2023-05-09T06:43:54;66.71;48.36;82.42;;
66274;Laerm;58450;52.150;4.466;2023-05-09T06:46:21;69.82;53.40;83.23;;
66274;Laerm;58450;52.150;4.466;2023-05-09T06:48:50;65.95;48.40;79.49;;
66274;Laerm;58450;52.150;4.466;2023-05-09T06:51:17;63.90;47.63;80.25;;
66274;Laerm;58450;52.150;4.466;2023-05-09T06:53:45;53.03;46.14;68.25;;
66274;Laerm;58450;52.150;4.466;2023-05-09T06:56:12;53.44;48.99;70.26;;
66274;Laerm;58450;52.150;4.466;2023-05-09T06:58:40;54.06;48.13;78.84;;
66274;Laerm;58450;52.150;4.466;2023-05-09T07:01:07;53.87;48.63;67.42;;
66274;Laerm;58450;52.150;4.466;2023-05-09T07:03:35;54.13;48.42;70.82;;
66274;Laerm;58450;52.150;4.466;2023-05-09T07:06:04;50.56;46.35;61.41;;
66274;Laerm;58450;52.150;4.466;2023-05-09T07:08:32;52.30;46.33;59.68;;
66274;Laerm;58450;52.150;4.466;2023-05-09T07:10:59;48.15;43.83;61.19;;
66274;Laerm;58450;52.150;4.466;2023-05-09T07:13:27;50.70;44.78;63.80;;
66274;Laerm;58450;52.150;4.466;2023-05-09T07:15:54;48.90;44.35;58.32;;
66274;Laerm;58450;52.150;4.466;2023-05-09T07:18:22;48.79;44.28;60.14;;
66274;Laerm;58450;52.150;4.466;2023-05-09T07:20:49;49.83;44.24;62.21;;
66274;Laerm;58450;52.150;4.466;2023-05-09T07:23:18;50.28;44.48;75.02;;
66274;Laerm;58450;52.150;4.466;2023-05-09T07:25:45;48.88;43.90;59.45;;
66274;Laerm;58450;52.150;4.466;2023-05-09T07:28:13;49.19;44.03;62.25;;
66274;Laerm;58450;52.150;4.466;2023-05-09T07:30:40;49.41;44.08;68.31;;
66274;Laerm;58450;52.150;4.466;2023-05-09T07:33:08;49.86;43.77;60.46;;
66274;Laerm;58450;52.150;4.466;2023-05-09T07:35:36;51.07;44.16;64.21;;
66274;Laerm;58450;52.150;4.466;2023-05-09T07:38:03;49.21;43.66;59.83;;
66274;Laerm;58450;52.150;4.466;2023-05-09T07:40:32;52.09;44.98;78.42;;
66274;Laerm;58450;52.150;4.466;2023-05-09T07:43:01;54.48;46.30;69.27;;
66274;Laerm;58450;52.150;4.466;2023-05-09T07:45:29;53.25;46.97;63.21;;
66274;Laerm;58450;52.150;4.466;2023-05-09T07:47:56;72.66;46.34;83.57;;
66274;Laerm;58450;52.150;4.466;2023-05-09T07:50:24;52.29;46.12;63.49;;
66274;Laerm;58450;52.150;4.466;2023-05-09T07:52:51;51.63;45.74;64.72;;
66274;Laerm;58450;52.150;4.466;2023-05-09T07:55:20;51.64;45.40;64.87;;
66274;Laerm;58450;52.150;4.466;2023-05-09T07:57:49;51.74;45.15;65.68;;
66274;Laerm;58450;52.150;4.466;2023-05-09T08:00:17;52.19;45.86;73.10;;
66274;Laerm;58450;52.150;4.466;2023-05-09T08:02:49;54.17;46.47;78.05;;
66274;Laerm;58450;52.150;4.466;2023-05-09T08:05:17;54.11;47.38;67.03;;
66274;Laerm;58450;52.150;4.466;2023-05-09T08:07:45;60.54;52.11;75.73;;
66274;Laerm;58450;52.150;4.466;2023-05-09T08:10:12;55.89;47.55;71.31;;
66274;Laerm;58450;52.150;4.466;2023-05-09T08:12:40;53.69;47.80;71.95;;
66274;Laerm;58450;52.150;4.466;2023-05-09T08:15:10;51.95;47.07;60.72;;
66274;Laerm;58450;52.150;4.466;2023-05-09T08:17:37;53.50;47.47;72.35;;
66274;Laerm;58450;52.150;4.466;2023-05-09T08:20:06;60.30;48.32;77.24;;
66274;Laerm;58450;52.150;4.466;2023-05-09T08:22:34;53.40;47.67;62.97;;
66274;Laerm;58450;52.150;4.466;2023-05-09T08:25:02;59.61;46.12;75.88;;
66274;Laerm;58450;52.150;4.466;2023-05-09T08:27:30;54.38;46.73;74.73;;
66274;Laerm;58450;52.150;4.466;2023-05-09T08:29:57;53.38;47.17;71.49;;
66274;Laerm;58450;52.150;4.466;2023-05-09T08:32:26;58.32;46.61;73.98;;
66274;Laerm;58450;52.150;4.466;2023-05-09T08:34:53;53.61;47.35;71.71;;
66274;Laerm;58450;52.150;4.466;2023-05-09T08:37:21;59.64;47.03;75.52;;
66274;Laerm;58450;52.150;4.466;2023-05-09T08:39:48;52.06;45.95;67.43;;
66274;Laerm;58450;52.150;4.466;2023-05-09T08:42:16;51.76;46.20;61.94;;
66274;Laerm;58450;52.150;4.466;2023-05-09T08:44:48;53.67;48.10;71.71;;
66274;Laerm;58450;52.150;4.466;2023-05-09T08:47:15;53.60;48.26;70.44;;
66274;Laerm;58450;52.150;4.466;2023-05-09T08:49:48;66.87;49.19;84.04;;
66274;Laerm;58450;52.150;4.466;2023-05-09T08:52:16;54.44;47.17;65.60;;
66274;Laerm;58450;52.150;4.466;2023-05-09T08:54:44;56.83;50.52;78.11;;
66274;Laerm;58450;52.150;4.466;2023-05-09T08:57:12;67.95;49.75;80.86;;
66274;Laerm;58450;52.150;4.466;2023-05-09T08:59:41;53.86;48.74;65.44;;
66274;Laerm;58450;52.150;4.466;2023-05-09T09:02:11;55.79;50.42;67.49;;
66274;Laerm;58450;52.150;4.466;2023-05-09T09:04:40;67.81;53.31;81.04;;
66274;Laerm;58450;52.150;4.466;2023-05-09T09:07:12;62.65;52.23;80.17;;
66274;Laerm;58450;52.150;4.466;2023-05-09T09:09:45;60.39;50.26;75.62;;
66274;Laerm;58450;52.150;4.466;2023-05-09T09:12:15;67.37;51.95;81.79;;
66274;Laerm;58450;52.150;4.466;2023-05-09T09:14:48;58.10;51.69;73.57;;
66274;Laerm;58450;52.150;4.466;2023-05-09T09:17:24;59.14;53.14;73.44;;
66274;Laerm;58450;52.150;4.466;2023-05-09T09:19:57;67.77;54.61;83.62;;
66274;Laerm;58450;52.150;4.466;2023-05-09T09:22:31;62.24;55.01;72.73;;
66274;Laerm;58450;52.150;4.466;2023-05-09T09:24:59;65.55;53.66;77.76;;
66274;Laerm;58450;52.150;4.466;2023-05-09T09:27:27;62.06;51.21;79.87;;
66274;Laerm;58450;52.150;4.466;2023-05-09T09:30:06;53.96;47.49;71.17;;
66274;Laerm;58450;52.150;4.466;2023-05-09T09:32:34;68.32;49.45;82.38;;
66274;Laerm;58450;52.150;4.466;2023-05-09T09:35:07;57.21;47.69;81.05;;
66274;Laerm;58450;52.150;4.466;2023-05-09T09:37:38;53.22;46.97;76.33;;
66274;Laerm;58450;52.150;4.466;2023-05-09T09:40:08;68.97;47.59;84.40;;
66274;Laerm;58450;52.150;4.466;2023-05-09T09:42:43;54.31;46.43;79.27;;
66274;Laerm;58450;52.150;4.466;2023-05-09T09:45:12;65.78;47.03;83.59;;
66274;Laerm;58450;52.150;4.466;2023-05-09T09:47:43;65.26;46.37;81.00;;
66274;Laerm;58450;52.150;4.466;2023-05-09T09:50:13;51.72;46.89;69.63;;
66274;Laerm;58450;52.150;4.466;2023-05-09T09:52:46;51.58;46.77;63.90;;
66274;Laerm;58450;52.150;4.466;2023-05-09T09:55:15;52.66;47.06;70.43;;
66274;Laerm;58450;52.150;4.466;2023-05-09T09:57:42;60.53;48.14;76.74;;
66274;Laerm;58450;52.150;4.466;2023-05-09T10:00:12;58.80;47.88;79.58;;
66274;Laerm;58450;52.150;4.466;2023-05-09T10:02:49;53.69;48.31;76.42;;
66274;Laerm;58450;52.150;4.466;2023-05-09T10:05:21;54.16;48.46;74.10;;
66274;Laerm;58450;52.150;4.466;2023-05-09T10:07:54;51.76;46.21;65.36;;
66274;Laerm;58450;52.150;4.466;2023-05-09T10:10:25;52.09;46.82;65.08;;
66274;Laerm;58450;52.150;4.466;2023-05-09T10:12:57;53.09;46.31;68.22;;
66274;Laerm;58450;52.150;4.466;2023-05-09T10:15:27;52.62;47.20;65.14;;
66274;Laerm;58450;52.150;4.466;2023-05-09T10:17:57;53.00;46.32;66.50;;
66274;Laerm;58450;52.150;4.466;2023-05-09T10:20:27;52.65;47.27;65.00;;
66274;Laerm;58450;52.150;4.466;2023-05-09T10:23:00;63.78;47.09;82.00;;
66274;Laerm;58450;52.150;4.466;2023-05-09T10:25:37;56.22;47.15;78.76;;
66274;Laerm;58450;52.150;4.466;2023-05-09T10:28:10;53.51;46.72;70.84;;
66274;Laerm;58450;52.150;4.466;2023-05-09T10:30:55;53.23;46.66;70.36;;
66274;Laerm;58450;52.150;4.466;2023-05-09T10:33:30;53.93;46.94;71.83;;
66274;Laerm;58450;52.150;4.466;2023-05-09T10:36:02;51.03;47.32;59.85;;
66274;Laerm;58450;52.150;4.466;2023-05-09T10:38:32;51.96;46.41;68.70;;
66274;Laerm;58450;52.150;4.466;2023-05-09T10:41:01;52.41;46.74;64.68;;
66274;Laerm;58450;52.150;4.466;2023-05-09T10:43:32;51.23;46.62;62.42;;
66274;Laerm;58450;52.150;4.466;2023-05-09T10:46:02;49.94;45.87;60.58;;
66274;Laerm;58450;52.150;4.466;2023-05-09T10:48:32;50.53;46.04;61.39;;
66274;Laerm;58450;52.150;4.466;2023-05-09T10:51:01;52.07;46.69;69.44;;
66274;Laerm;58450;52.150;4.466;2023-05-09T10:53:41;51.42;46.40;61.84;;
66274;Laerm;58450;52.150;4.466;2023-05-09T10:56:22;49.88;45.39;57.77;;
66274;Laerm;58450;52.150;4.466;2023-05-09T10:58:51;50.46;46.11;60.51;;
66274;Laerm;58450;52.150;4.466;2023-05-09T11:01:30;51.02;46.14;61.56;;
66274;Laerm;58450;52.150;4.466;2023-05-09T11:04:01;51.59;47.53;59.80;;
66274;Laerm;58450;52.150;4.466;2023-05-09T11:06:47;51.89;45.84;64.87;;
66274;Laerm;58450;52.150;4.466;2023-05-09T11:09:30;52.83;46.27;73.30;;
66274;Laerm;58450;52.150;4.466;2023-05-09T11:12:07;53.92;46.27;69.71;;
66274;Laerm;58450;52.150;4.466;2023-05-09T11:14:41;65.59;46.88;82.46;;
66274;Laerm;58450;52.150;4.466;2023-05-09T11:17:11;56.17;47.62;77.96;;
66274;Laerm;58450;52.150;4.466;2023-05-09T11:20:03;68.24;47.92;87.08;;
66274;Laerm;58450;52.150;4.466;2023-05-09T11:22:39;55.52;47.81;76.39;;
66274;Laerm;58450;52.150;4.466;2023-05-09T11:25:10;54.82;46.45;80.70;;
66274;Laerm;58450;52.150;4.466;2023-05-09T11:27:41;61.43;45.20;82.01;;
66274;Laerm;58450;52.150;4.466;2023-05-09T11:30:12;65.25;44.85;83.17;;
66274;Laerm;58450;52.150;4.466;2023-05-09T11:32:44;51.67;44.76;74.15;;
66274;Laerm;58450;52.150;4.466;2023-05-09T11:35:14;52.18;44.08;72.49;;
66274;Laerm;58450;52.150;4.466;2023-05-09T11:37:48;68.84;45.32;83.43;;
66274;Laerm;58450;52.150;4.466;2023-05-09T11:40:19;52.78;46.32;72.24;;
66274;Laerm;58450;52.150;4.466;2023-05-09T11:42:49;53.20;45.42;63.84;;
66274;Laerm;58450;52.150;4.466;2023-05-09T11:45:19;51.13;46.43;67.87;;
66274;Laerm;58450;52.150;4.466;2023-05-09T11:47:48;54.01;47.27;79.20;;
66274;Laerm;58450;52.150;4.466;2023-05-09T11:50:17;52.00;46.49;64.99;;
66274;Laerm;58450;52.150;4.466;2023-05-09T11:52:47;52.89;46.44;66.23;;
66274;Laerm;58450;52.150;4.466;2023-05-09T11:55:18;54.64;47.20;67.68;;
66274;Laerm;58450;52.150;4.466;2023-05-09T11:57:49;52.19;47.46;62.99;;
66274;Laerm;58450;52.150;4.466;2023-05-09T12:00:19;52.90;46.69;67.48;;
66274;Laerm;58450;52.150;4.466;2023-05-09T12:02:48;53.80;47.26;78.09;;
66274;Laerm;58450;52.150;4.466;2023-05-09T12:05:17;69.66;47.48;85.69;;
66274;Laerm;58450;52.150;4.466;2023-05-09T12:07:46;58.94;48.83;81.00;;
66274;Laerm;58450;52.150;4.466;2023-05-09T12:10:18;56.11;49.01;73.94;;
66274;Laerm;58450;52.150;4.466;2023-05-09T12:12:48;63.87;49.68;78.50;;
66274;Laerm;58450;52.150;4.466;2023-05-09T12:15:16;55.69;48.10;72.20;;
66274;Laerm;58450;52.150;4.466;2023-05-09T12:17:45;55.04;47.35;81.50;;
66274;Laerm;58450;52.150;4.466;2023-05-09T12:20:13;68.63;48.29;88.20;;
66274;Laerm;58450;52.150;4.466;2023-05-09T12:22:41;52.74;47.52;69.73;;
66274;Laerm;58450;52.150;4.466;2023-05-09T12:25:10;55.89;46.88;80.82;;
66274;Laerm;58450;52.150;4.466;2023-05-09T12:27:40;68.60;48.62;86.01;;
66274;Laerm;58450;52.150;4.466;2023-05-09T12:30:08;52.55;47.36;73.63;;
66274;Laerm;58450;52.150;4.466;2023-05-09T12:32:39;53.16;46.89;70.66;;
66274;Laerm;58450;52.150;4.466;2023-05-09T12:35:09;70.38;47.53;85.62;;
66274;Laerm;58450;52.150;4.466;2023-05-09T12:37:37;55.11;47.47;70.09;;
66274;Laerm;58450;52.150;4.466;2023-05-09T12:40:08;56.03;46.54;76.79;;
66274;Laerm;58450;52.150;4.466;2023-05-09T12:42:42;54.16;46.92;71.09;;
66274;Laerm;58450;52.150;4.466;2023-05-09T12:45:22;53.67;47.22;77.02;;
66274;Laerm;58450;52.150;4.466;2023-05-09T12:47:50;61.45;46.12;74.46;;
66274;Laerm;58450;52.150;4.466;2023-05-09T12:50:19;54.66;47.17;70.96;;
66274;Laerm;58450;52.150;4.466;2023-05-09T12:52:50;51.19;45.60;62.57;;
66274;Laerm;58450;52.150;4.466;2023-05-09T12:55:18;51.85;46.22;72.20;;
66274;Laerm;58450;52.150;4.466;2023-05-09T12:57:57;50.43;46.34;63.30;;
66274;Laerm;58450;52.150;4.466;2023-05-09T13:00:27;50.90;46.52;60.69;;
66274;Laerm;58450;52.150;4.466;2023-05-09T13:02:55;50.92;46.93;60.30;;
66274;Laerm;58450;52.150;4.466;2023-05-09T13:05:22;51.16;46.09;68.88;;
66274;Laerm;58450;52.150;4.466;2023-05-09T13:07:55;52.43;46.63;67.09;;
66274;Laerm;58450;52.150;4.466;2023-05-09T13:10:25;50.50;46.30;58.26;;
66274;Laerm;58450;52.150;4.466;2023-05-09T13:12:53;50.92;46.05;62.20;;
66274;Laerm;58450;52.150;4.466;2023-05-09T13:15:22;50.00;45.11;56.78;;
66274;Laerm;58450;52.150;4.466;2023-05-09T13:17:53;51.09;45.88;64.23;;
66274;Laerm;58450;52.150;4.466;2023-05-09T13:20:20;49.00;44.37;58.15;;
66274;Laerm;58450;52.150;4.466;2023-05-09T13:22:48;49.82;45.08;59.51;;
66274;Laerm;58450;52.150;4.466;2023-05-09T13:25:15;51.19;45.53;70.57;;
66274;Laerm;58450;52.150;4.466;2023-05-09T13:27:43;50.42;45.52;60.90;;
66274;Laerm;58450;52.150;4.466;2023-05-09T13:30:12;49.69;44.79;60.30;;
66274;Laerm;58450;52.150;4.466;2023-05-09T13:32:40;49.83;44.76;60.07;;
66274;Laerm;58450;52.150;4.466;2023-05-09T13:35:09;50.21;45.19;59.05;;
66274;Laerm;58450;52.150;4.466;2023-05-09T13:37:37;50.87;45.39;61.45;;
66274;Laerm;58450;52.150;4.466;2023-05-09T13:40:06;50.18;44.59;61.01;;
66274;Laerm;58450;52.150;4.466;2023-05-09T13:42:33;49.35;44.35;62.90;;
66274;Laerm;58450;52.150;4.466;2023-05-09T13:45:02;49.60;43.51;59.50;;
66274;Laerm;58450;52.150;4.466;2023-05-09T13:47:30;50.22;44.19;62.02;;
66274;Laerm;58450;52.150;4.466;2023-05-09T13:49:57;50.04;44.94;60.51;;
66274;Laerm;58450;52.150;4.466;2023-05-09T13:52:26;51.30;44.11;64.80;;
66274;Laerm;58450;52.150;4.466;2023-05-09T13:54:53;48.74;43.11;60.58;;
66274;Laerm;58450;52.150;4.466;2023-05-09T13:57:21;50.33;44.94;64.45;;